Main page
METAR-TAF:

METAR-TAF

Airports :

Istrana Air Base

Treviso, Italy

latitude: 45-41N, longitude: 012-06E, elevation: 45 m

Current weather observation

The report was made 39 minutes ago, at 18:55 UTC
Calm wind
Temperature 20°C
Humidity 83%
Pressure 1014 hPa
Visibility 10 km or more
Scattered clouds at a height of 1500 ft
Broken clouds at a height of 10000 ft

METAR: LIPS 221855Z 00000KT 9999 SCT015 BKN100 20/17 Q1014 RMK BKN VIS MIN 9999 WIND THR26 /////KT WIND THR08 04004KT BLU

Time: 21:34 (19:34 UTC)

Forecast

The report was made 2 hours and 34 minutes ago, at 17:00 UTC
Forecast valid from 22 at 18 UTC to 23 at 03 UTC
Wind 6 kt from the North/Northeast
Visibility 10 km or more
Scattered clouds at a height of 2500 ft
Broken clouds at a height of 6000 ft
Temporary
from 22 at 18 UTC to 22 at 24 UTC
Visibility: 5000 m
Few clouds at a height of 1500 ft, Cumulonimbus.
Broken clouds at a height of 2000 ft
thunderstorm, rain

TAF: LIPS 221700Z 2218/2303 03006KT 9999 SCT025 BKN060 TEMPO 2218/2224 5000 TSRA FEW015CB BKN020

Weather observations and forecasts of more than 4000 airports (METAR and TAF reports).

The available stations are represented by yellow and red dots on the map.

Hover mouse over dot to see the name of the station.

Then click to see weather observations and forecasts.

To change the map : click on the green buttons with a black cross to zoom in, on the green button with a dash to zoom out, or on the green arrows for adjacent maps.


METAR-TAF: